Time;durP1;ratioP1;P1;durP2;ratioP2;P2;SDS_P1;SDS_P2;PMS_P1;PMS_P2;Temp;Humidity;BMP_temperature;BMP_pressure;BME280_temperature;BME280_humidity;BME280_pressure;Samples;Min_cycle;Max_cycle;Signal;HPM_P1;HPM_P2
2021/11/16 00:00:36;;;;;;;17.60;9.40;;;3.00;99.90;;;;;;2081724;28;20186;-60
2021/11/16 00:01:38;;;;;;;23.92;10.15;;;3.00;99.90;;;;;;2079861;28;20183;-63
2021/11/16 00:02:40;;;;;;;23.85;10.68;;;3.00;99.90;;;;;;2079281;28;20187;-62
2021/11/16 00:03:41;;;;;;;22.90;11.00;;;3.10;99.90;;;;;;2080162;28;20632;-62
2021/11/16 00:04:42;;;;;;;26.07;11.43;;;3.00;99.90;;;;;;2081083;28;20195;-60
2021/11/16 00:05:43;;;;;;;21.10;10.97;;;3.00;99.90;;;;;;2081016;28;20274;-61
2021/11/16 00:06:48;;;;;;;24.13;10.73;;;3.00;99.90;;;;;;2081100;28;20607;-61
2021/11/16 00:07:51;;;;;;;17.92;8.90;;;3.10;99.90;;;;;;2081063;28;20278;-62
2021/11/16 00:08:52;;;;;;;21.92;9.73;;;3.00;99.90;;;;;;2080727;28;20271;-62
2021/11/16 00:09:53;;;;;;;21.57;10.03;;;3.00;99.90;;;;;;2080993;28;20324;-62
2021/11/16 00:10:54;;;;;;;22.07;11.43;;;3.00;99.90;;;;;;2080611;28;20297;-62
2021/11/16 00:11:54;;;;;;;22.42;10.50;;;3.00;99.90;;;;;;2080788;28;20625;-62
2021/11/16 00:12:57;;;;;;;21.37;9.97;;;3.00;99.90;;;;;;2080912;28;20240;-63
2021/11/16 00:13:58;;;;;;;18.30;8.52;;;3.00;99.90;;;;;;2082219;28;20653;-62
2021/11/16 00:14:59;;;;;;;14.73;6.80;;;2.90;99.90;;;;;;2082565;28;20236;-62
2021/11/16 00:16:00;;;;;;;12.70;6.77;;;2.90;99.90;;;;;;2082505;28;20197;-61
2021/11/16 00:17:00;;;;;;;13.43;6.93;;;2.80;99.90;;;;;;2082465;28;20249;-62
2021/11/16 00:18:01;;;;;;;15.70;6.83;;;2.80;99.90;;;;;;2082321;28;20711;-62
2021/11/16 00:19:06;;;;;;;14.05;7.03;;;2.70;99.90;;;;;;2082486;28;20179;-61
2021/11/16 00:20:11;;;;;;;13.10;7.03;;;2.60;99.90;;;;;;2082153;28;20569;-62
2021/11/16 00:21:13;;;;;;;17.45;7.95;;;2.60;99.90;;;;;;2082182;28;20198;-61
2021/11/16 00:22:18;;;;;;;13.77;6.75;;;2.60;99.90;;;;;;2082280;28;20198;-62
2021/11/16 00:23:21;;;;;;;13.23;7.25;;;2.60;99.90;;;;;;2082449;28;20607;-60
2021/11/16 00:24:32;;;;;;;15.82;7.82;;;2.60;99.90;;;;;;2082401;28;20313;-63
2021/11/16 00:25:36;;;;;;;11.57;6.53;;;2.70;99.90;;;;;;2082512;28;20198;-61
2021/11/16 00:26:37;;;;;;;15.05;7.47;;;2.70;99.90;;;;;;2082360;28;20195;-61
2021/11/16 00:27:38;;;;;;;12.30;7.33;;;2.70;99.90;;;;;;2082466;28;20176;-62
2021/11/16 00:28:38;;;;;;;14.77;7.57;;;2.80;99.90;;;;;;2082393;28;20174;-62
2021/11/16 00:29:39;;;;;;;11.90;6.43;;;2.80;99.90;;;;;;2082451;28;20266;-61
2021/11/16 00:30:40;;;;;;;11.93;7.40;;;2.80;99.90;;;;;;2081866;28;20270;-63
2021/11/16 00:31:41;;;;;;;12.77;6.85;;;2.90;99.90;;;;;;2082521;28;20178;-61
2021/11/16 00:32:42;;;;;;;11.63;6.60;;;3.00;99.90;;;;;;2082303;28;20194;-63
2021/11/16 00:33:43;;;;;;;14.68;7.63;;;3.00;99.90;;;;;;2082227;28;20809;-63
2021/11/16 00:34:44;;;;;;;12.87;6.93;;;3.00;99.90;;;;;;2082174;28;20220;-62
2021/11/16 00:35:45;;;;;;;17.50;8.70;;;3.00;99.90;;;;;;2082386;28;21203;-62
2021/11/16 00:36:46;;;;;;;12.57;7.67;;;3.00;99.90;;;;;;2082343;28;20177;-62
2021/11/16 00:37:46;;;;;;;14.70;8.23;;;3.10;99.90;;;;;;2082302;28;20269;-62
2021/11/16 00:38:47;;;;;;;13.00;6.50;;;3.10;99.90;;;;;;2082402;28;20187;-62
2021/11/16 00:39:48;;;;;;;14.20;7.70;;;3.10;99.90;;;;;;2082325;28;20206;-62
2021/11/16 00:40:49;;;;;;;15.00;7.73;;;3.10;99.90;;;;;;2081798;28;20632;-63
2021/11/16 00:41:50;;;;;;;15.57;7.72;;;3.10;99.90;;;;;;2082214;28;20266;-63
2021/11/16 00:42:51;;;;;;;17.40;7.33;;;3.00;99.90;;;;;;2082134;28;20665;-61
2021/11/16 00:43:53;;;;;;;15.80;8.40;;;3.00;99.90;;;;;;2082181;28;20611;-62
2021/11/16 00:44:53;;;;;;;13.88;8.23;;;3.10;99.90;;;;;;2082313;28;20191;-62
2021/11/16 00:45:56;;;;;;;17.42;8.35;;;3.00;99.80;;;;;;2082154;28;20556;-62
2021/11/16 00:46:57;;;;;;;14.48;7.95;;;3.10;99.90;;;;;;2082304;28;20183;-62
2021/11/16 00:47:57;;;;;;;14.30;8.40;;;3.10;99.90;;;;;;2082294;28;20182;-62
2021/11/16 00:48:58;;;;;;;11.83;7.03;;;3.10;99.90;;;;;;2082196;28;20173;-63
2021/11/16 00:49:59;;;;;;;15.17;8.53;;;3.00;99.80;;;;;;2082250;28;20177;-63
2021/11/16 00:51:04;;;;;;;14.77;8.00;;;3.00;99.80;;;;;;2081628;28;20265;-61
2021/11/16 00:52:05;;;;;;;14.55;7.90;;;3.10;99.90;;;;;;2082254;28;20163;-63
2021/11/16 00:53:06;;;;;;;14.27;8.38;;;3.10;99.90;;;;;;2082335;28;20254;-61
2021/11/16 00:54:07;;;;;;;13.45;7.95;;;3.10;99.90;;;;;;2081611;28;20209;-63
2021/11/16 00:55:08;;;;;;;13.97;7.90;;;3.10;99.90;;;;;;2081529;28;20266;-61
2021/11/16 00:56:10;;;;;;;13.07;7.22;;;3.10;99.90;;;;;;2082361;28;20259;-62
2021/11/16 00:57:11;;;;;;;16.83;8.25;;;3.20;99.90;;;;;;2081910;28;20173;-63
2021/11/16 00:58:12;;;;;;;19.23;8.87;;;3.20;99.80;;;;;;2082166;28;20169;-63
2021/11/16 00:59:13;;;;;;;13.73;7.90;;;3.20;99.70;;;;;;2082159;28;20192;-61
2021/11/16 01:00:16;;;;;;;12.93;7.43;;;3.20;99.60;;;;;;2082110;28;20789;-63
2021/11/16 01:01:17;;;;;;;14.27;7.88;;;3.20;99.90;;;;;;2081763;28;20184;-63
2021/11/16 01:02:18;;;;;;;16.17;8.60;;;3.10;99.60;;;;;;2081863;28;20627;-63
2021/11/16 01:03:21;;;;;;;13.93;7.57;;;3.10;99.80;;;;;;2082124;28;20179;-63
2021/11/16 01:04:21;;;;;;;13.35;7.47;;;3.00;99.90;;;;;;2082047;28;20171;-63
2021/11/16 01:05:23;;;;;;;13.00;7.27;;;3.00;99.90;;;;;;2082074;28;20183;-63
2021/11/16 01:06:24;;;;;;;12.40;6.75;;;3.00;99.90;;;;;;2082098;28;20422;-62
2021/11/16 01:07:24;;;;;;;12.20;6.77;;;3.00;99.90;;;;;;2081971;28;20171;-62
2021/11/16 01:08:25;;;;;;;10.47;6.33;;;3.00;99.90;;;;;;2082291;28;20591;-63
2021/11/16 01:09:26;;;;;;;12.30;6.47;;;2.90;99.40;;;;;;2082030;28;20183;-62
2021/11/16 01:10:27;;;;;;;9.00;5.70;;;2.90;99.30;;;;;;2081751;28;20606;-62
2021/11/16 01:11:28;;;;;;;10.82;5.53;;;2.80;99.40;;;;;;2082152;28;20301;-61
2021/11/16 01:12:29;;;;;;;10.37;5.80;;;2.80;99.60;;;;;;2082003;28;20639;-63
2021/11/16 01:13:29;;;;;;;10.10;6.13;;;2.80;99.60;;;;;;2082082;28;20178;-62
2021/11/16 01:14:30;;;;;;;11.97;5.40;;;2.70;99.80;;;;;;2082191;28;20262;-61
2021/11/16 01:15:32;;;;;;;10.03;5.83;;;2.70;99.90;;;;;;2082031;28;20186;-62
2021/11/16 01:16:33;;;;;;;10.48;5.60;;;2.70;99.80;;;;;;2082052;28;20182;-62
2021/11/16 01:17:34;;;;;;;8.47;5.30;;;2.70;99.70;;;;;;2082146;28;20201;-61
2021/11/16 01:18:35;;;;;;;9.77;5.93;;;2.80;99.60;;;;;;2081949;28;20598;-63
2021/11/16 01:19:36;;;;;;;10.23;5.93;;;2.80;99.50;;;;;;2081932;28;20186;-62
2021/11/16 01:20:38;;;;;;;10.00;5.85;;;2.80;99.80;;;;;;2081557;28;20191;-63
2021/11/16 01:21:39;;;;;;;7.45;4.85;;;2.80;99.90;;;;;;2081952;28;20630;-62
2021/11/16 01:22:41;;;;;;;10.27;5.65;;;2.80;99.90;;;;;;2081934;28;20599;-62
2021/11/16 01:23:42;;;;;;;10.95;5.75;;;2.80;99.90;;;;;;2081809;28;20214;-62
2021/11/16 01:24:44;;;;;;;8.47;4.90;;;2.90;99.90;;;;;;2081674;28;20211;-63
2021/11/16 01:25:47;;;;;;;10.02;5.53;;;2.90;99.90;;;;;;2081988;28;20517;-63
2021/11/16 01:26:49;;;;;;;7.95;4.82;;;2.90;99.50;;;;;;2081671;28;20710;-63
2021/11/16 01:27:51;;;;;;;7.85;5.13;;;2.90;99.10;;;;;;2081913;28;20676;-62
2021/11/16 01:28:54;;;;;;;8.68;5.30;;;2.90;99.10;;;;;;2081767;28;20618;-62
2021/11/16 01:29:55;;;;;;;9.63;5.15;;;2.90;99.00;;;;;;2082009;28;20284;-63
2021/11/16 01:31:00;;;;;;;7.17;4.47;;;2.90;99.00;;;;;;2081486;28;20714;-61
2021/11/16 01:32:01;;;;;;;7.43;4.60;;;2.80;98.90;;;;;;2081212;28;20267;-63
2021/11/16 01:34:05;;;;;;;7.82;4.78;;;2.80;99.10;;;;;;2081852;28;20171;-61
2021/11/16 01:35:07;;;;;;;7.63;4.82;;;2.70;99.10;;;;;;2081812;28;20175;-62
2021/11/16 01:36:11;;;;;;;9.23;5.22;;;2.70;99.30;;;;;;2081362;28;20254;-63
2021/11/16 01:37:14;;;;;;;14.65;5.00;;;2.80;99.20;;;;;;2081254;28;20166;-63
2021/11/16 01:38:16;;;;;;;9.10;5.30;;;2.70;99.20;;;;;;2081911;28;20189;-62
2021/11/16 01:39:17;;;;;;;8.07;5.05;;;2.70;99.10;;;;;;2081524;28;20654;-63
2021/11/16 01:40:19;;;;;;;9.13;5.90;;;2.70;99.20;;;;;;2088795;28;20175;-63
2021/11/16 01:41:20;;;;;;;8.60;5.57;;;2.70;99.30;;;;;;2089977;28;20173;-63
2021/11/16 01:42:22;;;;;;;11.35;5.68;;;2.70;99.50;;;;;;2089953;28;20657;-61
2021/11/16 01:43:23;;;;;;;9.85;6.13;;;2.70;99.90;;;;;;2090082;28;20171;-62
2021/11/16 01:44:24;;;;;;;9.05;5.40;;;2.80;99.90;;;;;;2090108;28;20170;-63
2021/11/16 01:45:25;;;;;;;9.03;5.33;;;2.80;99.80;;;;;;2089942;28;20184;-61
2021/11/16 01:46:27;;;;;;;10.90;5.80;;;2.80;99.60;;;;;;2090022;28;20177;-63
2021/11/16 01:47:27;;;;;;;10.93;5.85;;;2.80;99.50;;;;;;2089937;28;20222;-62
2021/11/16 01:48:30;;;;;;;10.60;5.80;;;2.80;99.40;;;;;;2089999;28;20174;-63
2021/11/16 01:49:30;;;;;;;8.43;5.10;;;2.90;99.30;;;;;;2089891;28;20163;-63
2021/11/16 01:50:31;;;;;;;10.23;5.10;;;2.90;99.20;;;;;;2089636;28;20584;-63
2021/11/16 01:51:32;;;;;;;8.27;5.07;;;2.90;99.60;;;;;;2090008;28;20233;-62
2021/11/16 01:52:33;;;;;;;10.77;5.50;;;2.90;98.90;;;;;;2090004;28;20670;-63
2021/11/16 01:53:34;;;;;;;8.63;5.15;;;3.00;98.80;;;;;;2089981;28;20271;-63
2021/11/16 01:54:36;;;;;;;9.15;5.45;;;3.00;98.80;;;;;;2084607;28;20183;-62
2021/11/16 01:55:38;;;;;;;8.07;5.10;;;3.00;98.70;;;;;;2081822;28;20510;-62
2021/11/16 01:56:44;;;;;;;10.02;5.47;;;3.00;98.70;;;;;;2081617;28;20648;-62
2021/11/16 01:57:46;;;;;;;8.15;4.97;;;3.00;98.80;;;;;;2081702;28;20184;-61
2021/11/16 01:58:47;;;;;;;9.30;4.93;;;3.00;98.80;;;;;;2081666;28;20178;-62
2021/11/16 01:59:47;;;;;;;7.77;5.00;;;3.00;98.90;;;;;;2081642;28;20176;-62
2021/11/16 02:00:48;;;;;;;11.57;5.57;;;2.90;99.00;;;;;;2081446;28;20583;-63
2021/11/16 02:01:51;;;;;;;8.32;5.57;;;3.00;99.10;;;;;;2081756;28;20188;-63
2021/11/16 02:02:52;;;;;;;10.52;5.50;;;3.00;99.10;;;;;;2081651;28;20249;-62
2021/11/16 02:03:53;;;;;;;7.90;4.97;;;3.00;99.10;;;;;;2081686;28;20218;-62
2021/11/16 02:04:53;;;;;;;8.50;5.05;;;2.90;99.20;;;;;;2081685;28;20257;-63
2021/11/16 02:05:58;;;;;;;9.43;4.90;;;2.90;99.40;;;;;;2081605;28;20557;-63
2021/11/16 02:06:59;;;;;;;6.78;4.88;;;3.00;99.30;;;;;;2080863;28;20834;-62
2021/11/16 02:08:00;;;;;;;9.55;5.28;;;3.00;98.90;;;;;;2080906;28;20178;-62
2021/11/16 02:09:04;;;;;;;10.70;5.03;;;3.00;98.70;;;;;;2081552;28;20198;-63
2021/11/16 02:10:05;;;;;;;7.45;5.00;;;3.00;98.50;;;;;;2081466;28;20178;-63
2021/11/16 02:11:06;;;;;;;7.88;4.65;;;3.10;98.20;;;;;;2081122;28;20222;-63
2021/11/16 02:12:07;;;;;;;9.70;5.40;;;3.10;98.10;;;;;;2081182;28;20175;-63
2021/11/16 02:13:08;;;;;;;9.00;5.32;;;3.10;98.30;;;;;;2081435;28;20783;-63
2021/11/16 02:14:14;;;;;;;11.27;5.53;;;3.10;98.70;;;;;;2081498;28;21404;-63
2021/11/16 02:15:15;;;;;;;11.80;5.78;;;3.10;99.00;;;;;;2081507;28;20170;-63
2021/11/16 02:16:17;;;;;;;10.53;5.70;;;3.10;99.10;;;;;;2081249;28;20682;-63
2021/11/16 02:17:18;;;;;;;9.02;5.20;;;3.10;99.10;;;;;;2081238;28;20667;-63
2021/11/16 02:18:18;;;;;;;7.97;5.33;;;3.10;99.00;;;;;;2081291;28;20233;-63
2021/11/16 02:19:21;;;;;;;9.13;5.50;;;3.10;99.00;;;;;;2081376;28;20271;-62
2021/11/16 02:20:22;;;;;;;10.07;5.57;;;3.10;98.90;;;;;;2081043;28;20190;-63
2021/11/16 02:21:23;;;;;;;7.45;4.93;;;3.10;98.80;;;;;;2081365;28;20174;-62
2021/11/16 02:22:24;;;;;;;10.57;5.40;;;3.10;98.80;;;;;;2081275;28;20499;-62
2021/11/16 02:23:25;;;;;;;9.50;5.00;;;3.10;98.60;;;;;;2081335;28;20225;-62
2021/11/16 02:24:25;;;;;;;10.57;4.97;;;3.20;98.40;;;;;;2081380;28;20186;-62
2021/11/16 02:25:27;;;;;;;9.90;5.43;;;3.20;98.30;;;;;;2081515;28;20183;-62
2021/11/16 02:26:27;;;;;;;7.65;5.40;;;3.20;98.10;;;;;;2081505;28;20272;-63
2021/11/16 02:27:28;;;;;;;8.10;4.67;;;3.20;97.80;;;;;;2081412;28;20183;-62
2021/11/16 02:28:29;;;;;;;9.77;5.37;;;3.20;97.70;;;;;;2081344;28;20177;-62
2021/11/16 02:29:30;;;;;;;8.10;4.90;;;3.20;98.00;;;;;;2081545;28;20627;-62
2021/11/16 02:30:31;;;;;;;9.27;6.05;;;3.10;98.30;;;;;;2081050;28;20266;-62
2021/11/16 02:31:32;;;;;;;9.77;5.40;;;3.10;98.40;;;;;;2081458;28;20654;-61
2021/11/16 02:32:33;;;;;;;7.88;4.40;;;3.10;98.40;;;;;;2081511;28;20221;-61
2021/11/16 02:33:34;;;;;;;7.32;4.65;;;3.10;98.30;;;;;;2081135;28;20192;-63
2021/11/16 02:34:35;;;;;;;7.47;4.37;;;3.20;98.20;;;;;;2081439;28;20643;-63
2021/11/16 02:35:36;;;;;;;7.50;4.23;;;3.10;98.30;;;;;;2081077;28;20195;-62
2021/11/16 02:36:37;;;;;;;6.90;4.20;;;3.10;98.20;;;;;;2080857;28;20187;-62
2021/11/16 02:37:38;;;;;;;7.93;4.10;;;3.10;98.20;;;;;;2081208;28;20577;-62
2021/11/16 02:38:40;;;;;;;7.63;4.37;;;3.00;98.30;;;;;;2081439;28;20191;-63
2021/11/16 02:39:41;;;;;;;9.07;4.82;;;3.00;98.70;;;;;;2081392;28;20177;-62
2021/11/16 02:40:42;;;;;;;9.03;4.67;;;3.00;99.40;;;;;;2080998;28;20268;-62
2021/11/16 02:41:51;;;;;;;7.57;4.30;;;3.00;99.60;;;;;;2081309;28;20175;-62
2021/11/16 02:42:53;;;;;;;8.77;4.85;;;3.00;99.20;;;;;;2081291;28;21008;-61
2021/11/16 02:43:54;;;;;;;9.13;4.70;;;3.00;99.00;;;;;;2081180;28;20663;-62
2021/11/16 02:44:55;;;;;;;8.07;4.90;;;3.00;98.90;;;;;;2080633;28;20265;-63
2021/11/16 02:45:56;;;;;;;8.00;5.00;;;3.00;98.90;;;;;;2080764;28;20753;-61
2021/11/16 02:46:57;;;;;;;8.80;4.70;;;3.00;98.90;;;;;;2081478;28;20190;-63
2021/11/16 02:47:57;;;;;;;7.50;4.43;;;3.00;98.90;;;;;;2081266;28;20183;-61
2021/11/16 02:48:59;;;;;;;7.83;4.83;;;3.00;98.80;;;;;;2081415;28;20639;-63
2021/11/16 02:50:00;;;;;;;8.05;5.07;;;3.00;98.80;;;;;;2081257;28;20182;-61
2021/11/16 02:51:08;;;;;;;7.80;4.80;;;3.00;98.60;;;;;;2080937;28;20232;-63
2021/11/16 02:52:11;;;;;;;10.02;4.68;;;3.00;98.60;;;;;;2081208;28;20609;-62
2021/11/16 02:53:14;;;;;;;9.65;4.55;;;3.00;98.60;;;;;;2081432;28;20205;-60
2021/11/16 02:54:20;;;;;;;8.80;4.55;;;3.00;98.80;;;;;;2081318;28;20203;-63
2021/11/16 02:55:21;;;;;;;8.50;5.20;;;3.00;98.90;;;;;;2081157;28;20220;-63
2021/11/16 02:56:22;;;;;;;8.77;5.07;;;3.00;98.80;;;;;;2081146;28;20673;-62
2021/11/16 02:57:23;;;;;;;7.75;4.40;;;3.00;98.80;;;;;;2080643;28;20541;-62
2021/11/16 02:58:25;;;;;;;9.73;5.28;;;3.10;98.80;;;;;;2080661;28;20242;-62
2021/11/16 02:59:26;;;;;;;8.73;5.13;;;3.10;98.80;;;;;;2081298;28;20194;-63
2021/11/16 03:00:26;;;;;;;10.20;5.43;;;3.10;98.80;;;;;;2080885;28;20619;-62
2021/11/16 03:01:27;;;;;;;9.00;5.03;;;3.20;99.10;;;;;;2081130;28;20173;-63
2021/11/16 03:02:28;;;;;;;9.53;5.13;;;3.10;99.20;;;;;;2081143;28;20175;-63
2021/11/16 03:03:28;;;;;;;8.70;4.87;;;3.10;99.30;;;;;;2081394;28;20166;-63
2021/11/16 03:04:33;;;;;;;10.07;5.53;;;3.20;99.40;;;;;;2081164;28;20229;-63
2021/11/16 03:05:35;;;;;;;8.70;4.72;;;3.10;99.40;;;;;;2081251;28;20261;-62
2021/11/16 03:06:36;;;;;;;10.57;5.35;;;3.20;99.40;;;;;;2081061;28;20252;-63
2021/11/16 03:07:46;;;;;;;8.13;4.78;;;3.20;99.30;;;;;;2081274;28;20188;-63
2021/11/16 03:08:47;;;;;;;9.35;5.13;;;3.30;99.20;;;;;;2081192;28;20194;-63
2021/11/16 03:09:51;;;;;;;12.27;5.70;;;3.30;99.10;;;;;;2081096;28;20208;-63
2021/11/16 03:10:55;;;;;;;9.35;4.95;;;3.30;99.10;;;;;;2080644;28;20222;-63
2021/11/16 03:11:58;;;;;;;9.88;5.72;;;3.30;99.10;;;;;;2081191;28;20187;-63
2021/11/16 03:12:59;;;;;;;9.63;5.70;;;3.30;98.90;;;;;;2081207;28;20545;-62
2021/11/16 03:13:59;;;;;;;13.10;5.80;;;3.30;98.90;;;;;;2081313;28;20183;-63
2021/11/16 03:15:01;;;;;;;11.07;5.57;;;3.30;98.90;;;;;;2081023;28;20539;-62
2021/11/16 03:16:15;;;;;;;12.18;6.00;;;3.30;99.00;;;;;;2082489;28;20547;-63
2021/11/16 03:17:16;;;;;;;17.45;7.82;;;3.30;99.10;;;;;;2089199;28;20245;-63
2021/11/16 03:18:17;;;;;;;12.93;6.40;;;3.30;99.00;;;;;;2089205;28;20171;-61
2021/11/16 03:19:18;;;;;;;12.57;5.85;;;3.30;99.30;;;;;;2089359;28;20179;-63
2021/11/16 03:20:20;;;;;;;13.37;6.50;;;3.20;99.70;;;;;;2089168;28;20223;-63
2021/11/16 03:21:24;;;;;;;17.27;7.00;;;3.20;99.90;;;;;;2089367;28;20182;-61
2021/11/16 03:22:32;;;;;;;14.60;6.88;;;3.20;99.90;;;;;;2089299;28;20210;-63
2021/11/16 03:23:33;;;;;;;16.00;6.97;;;3.20;99.90;;;;;;2089322;28;20190;-60
2021/11/16 03:24:35;;;;;;;14.27;7.13;;;3.20;99.90;;;;;;2089290;28;20191;-63
2021/11/16 03:25:41;;;;;;;15.27;7.07;;;3.20;99.90;;;;;;2089407;28;20186;-63
2021/11/16 03:26:42;;;;;;;14.93;7.22;;;3.20;99.90;;;;;;2089272;28;20178;-63
2021/11/16 03:27:45;;;;;;;14.20;6.87;;;3.30;99.90;;;;;;2089202;28;20172;-62
2021/11/16 03:28:50;;;;;;;17.20;8.02;;;3.30;99.90;;;;;;2089208;28;20538;-62
2021/11/16 03:29:55;;;;;;;13.57;7.15;;;3.20;99.90;;;;;;2089273;28;20621;-61
2021/11/16 03:31:11;;;;;;;20.75;8.80;;;3.20;99.90;;;;;;2088817;28;20629;-62
2021/11/16 03:32:15;;;;;;;18.48;8.60;;;3.20;99.90;;;;;;2089222;28;20179;-63
2021/11/16 03:33:18;;;;;;;17.63;9.32;;;3.10;99.90;;;;;;2089138;28;20253;-63
2021/11/16 03:34:19;;;;;;;16.17;7.75;;;3.20;99.90;;;;;;2089264;28;20166;-61
2021/11/16 03:35:19;;;;;;;12.17;6.93;;;3.20;99.90;;;;;;2089362;28;20172;-63
2021/11/16 03:36:22;;;;;;;18.17;8.53;;;3.20;99.90;;;;;;2089325;28;20542;-63
2021/11/16 03:37:25;;;;;;;16.13;7.50;;;3.20;99.90;;;;;;2089158;28;20665;-63
2021/11/16 03:38:26;;;;;;;16.77;8.38;;;3.20;99.90;;;;;;2089311;28;20184;-63
2021/11/16 03:39:27;;;;;;;14.63;8.00;;;3.20;99.90;;;;;;2088543;28;20659;-62
2021/11/16 03:40:34;;;;;;;20.50;8.60;;;3.20;99.90;;;;;;2088296;28;20174;-62
2021/11/16 03:41:36;;;;;;;25.20;10.60;;;3.20;99.90;;;;;;2089484;28;20205;-63
2021/11/16 03:42:41;;;;;;;18.30;8.85;;;3.20;99.90;;;;;;2089384;28;20183;-63
2021/11/16 03:43:44;;;;;;;18.77;9.20;;;3.20;99.90;;;;;;2089114;28;20270;-63
2021/11/16 03:44:45;;;;;;;18.70;9.77;;;3.20;99.90;;;;;;2089105;28;20240;-62
2021/11/16 03:45:47;;;;;;;24.37;9.77;;;3.20;99.90;;;;;;2089225;28;20644;-62
2021/11/16 03:46:48;;;;;;;23.30;10.02;;;3.20;99.90;;;;;;2088672;28;20213;-63
2021/11/16 03:47:49;;;;;;;24.13;10.60;;;3.20;99.90;;;;;;2086862;28;20218;-62
2021/11/16 03:48:50;;;;;;;21.77;10.25;;;3.10;99.90;;;;;;2090713;28;20236;-63
2021/11/16 03:49:51;;;;;;;15.77;7.93;;;3.20;99.90;;;;;;2090901;28;20237;-63
2021/11/16 03:50:52;;;;;;;27.80;10.07;;;3.20;99.90;;;;;;2090441;28;20304;-63
2021/11/16 03:51:54;;;;;;;20.77;9.30;;;3.20;99.90;;;;;;2090809;28;20175;-62
2021/11/16 03:52:57;;;;;;;22.05;9.70;;;3.20;99.90;;;;;;2090763;28;20189;-63
2021/11/16 03:53:58;;;;;;;18.45;8.32;;;3.20;99.90;;;;;;2090723;28;20255;-60
2021/11/16 03:54:59;;;;;;;25.33;9.13;;;3.20;99.90;;;;;;2090734;28;20553;-63
2021/11/16 03:55:59;;;;;;;19.03;8.67;;;3.30;99.90;;;;;;2090740;28;20540;-61
2021/11/16 03:57:01;;;;;;;24.53;9.70;;;3.30;99.90;;;;;;2090865;28;20645;-63
2021/11/16 03:58:03;;;;;;;21.33;9.30;;;3.30;99.90;;;;;;2090760;28;20182;-62
2021/11/16 03:59:04;;;;;;;16.25;8.55;;;3.30;99.90;;;;;;2090801;28;20174;-63
2021/11/16 04:00:20;;;;;;;15.98;8.68;;;3.30;99.90;;;;;;2090575;28;20159;-61
2021/11/16 04:01:21;;;;;;;20.48;9.48;;;3.30;99.90;;;;;;2090013;28;20207;-61
2021/11/16 04:02:21;;;;;;;21.40;9.50;;;3.30;99.90;;;;;;2090048;28;20174;-61
2021/11/16 04:03:26;;;;;;;18.63;9.43;;;3.20;99.90;;;;;;2090659;28;20767;-61
2021/11/16 04:04:27;;;;;;;24.42;10.05;;;3.20;99.90;;;;;;2090675;28;20254;-61
2021/11/16 04:05:28;;;;;;;17.67;9.33;;;3.20;99.90;;;;;;2090725;28;20178;-61
2021/11/16 04:06:29;;;;;;;22.52;9.23;;;3.20;99.90;;;;;;2090599;28;20511;-60
2021/11/16 04:07:30;;;;;;;19.87;8.93;;;3.20;99.90;;;;;;2090620;28;20175;-61
2021/11/16 04:08:31;;;;;;;17.70;9.05;;;3.20;99.90;;;;;;2090809;28;20189;-61
2021/11/16 04:09:32;;;;;;;22.38;9.75;;;3.20;99.90;;;;;;2090636;28;20210;-61
2021/11/16 04:10:34;;;;;;;19.93;8.73;;;3.20;99.90;;;;;;2090158;28;20187;-60
2021/11/16 04:11:35;;;;;;;26.95;10.00;;;3.20;99.90;;;;;;2090600;28;20183;-61
2021/11/16 04:12:36;;;;;;;34.43;11.37;;;3.20;99.90;;;;;;2090449;28;20175;-61
2021/11/16 04:13:37;;;;;;;19.17;9.33;;;3.20;99.90;;;;;;2090622;28;20187;-61
2021/11/16 04:14:38;;;;;;;27.95;10.40;;;3.20;99.90;;;;;;2090442;28;20178;-61
2021/11/16 04:15:39;;;;;;;29.17;10.63;;;3.20;99.90;;;;;;2090388;28;20176;-61
2021/11/16 04:16:40;;;;;;;21.67;9.70;;;3.20;99.90;;;;;;2090447;28;20179;-61
2021/11/16 04:17:43;;;;;;;20.88;9.77;;;3.20;99.90;;;;;;2090536;28;20231;-61
2021/11/16 04:18:45;;;;;;;22.55;9.93;;;3.20;99.90;;;;;;2090493;28;20168;-61
2021/11/16 04:19:46;;;;;;;24.00;9.93;;;3.20;99.90;;;;;;2090431;28;20174;-61
2021/11/16 04:20:50;;;;;;;28.27;11.20;;;3.20;99.90;;;;;;2090086;28;20568;-61
2021/11/16 04:21:51;;;;;;;25.17;11.43;;;3.20;99.90;;;;;;2090571;28;20169;-61
2021/11/16 04:22:53;;;;;;;19.23;10.37;;;3.20;99.90;;;;;;2090385;28;20214;-61
2021/11/16 04:23:53;;;;;;;19.95;9.55;;;3.30;99.90;;;;;;2090589;28;20414;-60
2021/11/16 04:24:55;;;;;;;23.97;11.23;;;3.30;99.90;;;;;;2090453;28;20180;-61
2021/11/16 04:25:56;;;;;;;16.73;8.98;;;3.30;99.90;;;;;;2090437;28;20670;-60
2021/11/16 04:26:57;;;;;;;20.15;9.93;;;3.30;99.90;;;;;;2090367;28;20197;-61
2021/11/16 04:28:00;;;;;;;26.00;10.70;;;3.30;99.90;;;;;;2090500;28;20824;-61
2021/11/16 04:29:01;;;;;;;25.85;9.68;;;3.30;99.90;;;;;;2089764;28;20249;-61
2021/11/16 04:30:04;;;;;;;22.35;10.40;;;3.30;99.90;;;;;;2089828;28;20175;-60
2021/11/16 04:31:05;;;;;;;30.13;11.40;;;3.20;99.90;;;;;;2090031;28;20238;-61
2021/11/16 04:32:06;;;;;;;20.70;9.70;;;3.20;99.90;;;;;;2090341;28;20217;-61
2021/11/16 04:33:08;;;;;;;24.08;9.65;;;3.20;99.90;;;;;;2090387;28;20190;-64
2021/11/16 04:34:08;;;;;;;22.08;9.93;;;3.20;99.90;;;;;;2090404;28;20171;-61
2021/11/16 04:35:11;;;;;;;24.30;10.97;;;3.10;99.90;;;;;;2090382;28;20547;-61
2021/11/16 04:36:13;;;;;;;23.35;11.40;;;3.10;99.90;;;;;;2090479;28;20178;-60
2021/11/16 04:37:14;;;;;;;23.65;10.82;;;3.20;99.90;;;;;;2090291;28;20178;-61
2021/11/16 04:38:17;;;;;;;24.17;10.60;;;3.20;99.90;;;;;;2090374;28;20178;-61
2021/11/16 04:39:18;;;;;;;27.15;11.75;;;3.20;99.90;;;;;;2090208;28;20245;-60
2021/11/16 04:40:25;;;;;;;19.53;9.53;;;3.20;99.90;;;;;;2090282;28;20252;-61
2021/11/16 04:41:27;;;;;;;18.27;9.38;;;3.30;99.90;;;;;;2090351;28;20186;-59
2021/11/16 04:42:27;;;;;;;28.08;12.88;;;3.30;99.90;;;;;;2090282;28;20266;-61
2021/11/16 04:43:29;;;;;;;22.80;10.63;;;3.30;99.90;;;;;;2090249;28;20245;-60
2021/11/16 04:44:30;;;;;;;28.38;12.48;;;3.30;99.90;;;;;;2090230;28;20480;-62
2021/11/16 04:45:32;;;;;;;24.53;11.13;;;3.30;99.90;;;;;;2090275;28;20234;-59
2021/11/16 04:46:33;;;;;;;25.95;11.77;;;3.30;99.90;;;;;;2090395;28;20452;-61
2021/11/16 04:47:43;;;;;;;24.10;10.52;;;3.30;99.90;;;;;;2090205;28;20195;-61
2021/11/16 04:49:01;;;;;;;26.15;11.68;;;3.30;99.90;;;;;;2090405;28;20214;-61
2021/11/16 04:50:11;;;;;;;21.98;9.88;;;3.30;99.90;;;;;;2090208;28;20643;-61
2021/11/16 05:02:32;;;;;;;15.15;8.18;;;3.20;99.90;;;;;;2089824;28;20189;-60
2021/11/16 05:02:41;;;;;;;15.57;8.48;;;3.20;99.90;;;;;;2090054;28;20178;-62
2021/11/16 05:03:41;;;;;;;17.27;8.77;;;3.20;99.90;;;;;;2090119;28;20806;-61
2021/11/16 05:04:42;;;;;;;14.93;8.37;;;3.10;99.90;;;;;;2090151;28;20171;-61
2021/11/16 05:05:43;;;;;;;16.00;8.43;;;3.10;99.90;;;;;;2090209;28;20174;-60
2021/11/16 05:06:44;;;;;;;19.10;9.27;;;3.20;99.90;;;;;;2090148;28;20228;-62
2021/11/16 05:07:58;;;;;;;15.55;8.80;;;3.20;99.90;;;;;;2090248;28;20181;-60
2021/11/16 05:08:58;;;;;;;16.95;9.00;;;3.20;99.90;;;;;;2090023;28;20651;-62
2021/11/16 05:10:01;;;;;;;19.67;9.97;;;3.30;99.90;;;;;;2090162;28;20201;-61
2021/11/16 05:11:02;;;;;;;23.85;10.68;;;3.30;99.90;;;;;;2089677;28;20596;-62
2021/11/16 05:12:03;;;;;;;23.47;11.33;;;3.30;99.90;;;;;;2090074;28;20180;-62
2021/11/16 05:13:04;;;;;;;19.85;10.15;;;3.30;99.90;;;;;;2090031;28;20207;-62
2021/11/16 05:14:05;;;;;;;20.37;10.10;;;3.30;99.90;;;;;;2090186;28;20187;-62
2021/11/16 05:15:14;;;;;;;21.45;9.70;;;3.30;99.90;;;;;;2090035;28;20186;-62
2021/11/16 05:16:18;;;;;;;17.00;9.20;;;3.30;99.90;;;;;;2090291;28;20185;-62
2021/11/16 05:17:19;;;;;;;18.70;9.90;;;3.30;99.90;;;;;;2090140;28;20201;-62
2021/11/16 05:18:20;;;;;;;22.50;12.00;;;3.30;99.90;;;;;;2090273;28;20180;-61
2021/11/16 05:19:21;;;;;;;23.33;11.93;;;3.30;99.90;;;;;;2090020;28;20174;-60
2021/11/16 05:20:22;;;;;;;21.70;9.50;;;3.30;99.90;;;;;;2089775;28;20269;-63
2021/11/16 05:21:23;;;;;;;19.77;9.30;;;3.20;99.90;;;;;;2089961;28;20694;-62
2021/11/16 05:22:24;;;;;;;18.10;9.93;;;3.30;99.90;;;;;;2090159;28;20186;-62
2021/11/16 05:23:26;;;;;;;25.35;10.88;;;3.30;99.90;;;;;;2090142;28;20182;-61
2021/11/16 05:24:27;;;;;;;20.20;10.38;;;3.30;99.90;;;;;;2090148;28;20266;-60
2021/11/16 05:25:29;;;;;;;21.60;9.57;;;3.30;99.90;;;;;;2089997;28;20183;-62
2021/11/16 05:26:30;;;;;;;20.67;9.55;;;3.40;99.90;;;;;;2090122;28;20295;-60
2021/11/16 05:27:31;;;;;;;18.30;10.07;;;3.40;99.90;;;;;;2090059;28;20221;-62
2021/11/16 05:28:31;;;;;;;21.10;10.50;;;3.40;99.90;;;;;;2090148;28;20583;-62
2021/11/16 05:29:32;;;;;;;20.67;9.77;;;3.50;99.90;;;;;;2090022;28;20174;-62
2021/11/16 05:30:35;;;;;;;16.13;9.03;;;3.40;99.90;;;;;;2089636;28;20185;-62
2021/11/16 05:31:35;;;;;;;18.25;8.30;;;3.40;99.90;;;;;;2089941;28;20647;-62
2021/11/16 05:32:39;;;;;;;20.90;9.30;;;3.30;99.90;;;;;;2090102;28;20207;-62
2021/11/16 05:33:42;;;;;;;23.63;10.30;;;3.20;99.90;;;;;;2090124;28;20261;-62
2021/11/16 05:34:42;;;;;;;18.55;8.88;;;3.20;99.90;;;;;;2090169;28;20183;-61